createdAt,value
2018-12-08T00:01:45.821Z,12.44
2018-12-08T00:04:14.914Z,12.63
2018-12-08T00:06:44.046Z,12.48
2018-12-08T00:09:13.260Z,12.59
2018-12-08T00:11:42.569Z,12.72
2018-12-08T00:14:12.010Z,12.77
2018-12-08T00:16:41.133Z,12.60
2018-12-08T00:19:10.342Z,12.67
2018-12-08T00:21:39.441Z,12.53
2018-12-08T00:24:08.625Z,12.44
2018-12-08T00:26:37.891Z,12.41
2018-12-08T00:29:07.040Z,11.80
2018-12-08T00:31:46.959Z,12.30
2018-12-08T00:34:16.084Z,11.47
2018-12-08T00:36:45.344Z,12.06
2018-12-08T00:39:14.442Z,11.74
2018-12-08T00:41:43.635Z,11.89
2018-12-08T00:44:13.061Z,11.51
2018-12-08T00:46:42.281Z,12.32
2018-12-08T00:49:11.447Z,11.44
2018-12-08T00:51:40.515Z,11.33
2018-12-08T00:54:09.955Z,11.42
2018-12-08T00:56:39.111Z,12.23
2018-12-08T00:59:08.250Z,11.52
2018-12-08T01:01:37.719Z,11.13
2018-12-08T01:04:06.750Z,11.15
2018-12-08T01:06:36.335Z,10.77
2018-12-08T01:09:07.484Z,10.47
2018-12-08T01:11:36.848Z,10.77
2018-12-08T01:14:05.978Z,10.96
2018-12-08T01:16:35.090Z,11.41
2018-12-08T01:19:04.213Z,10.94
2018-12-08T01:21:33.248Z,11.43
2018-12-08T01:24:02.404Z,11.24
2018-12-08T01:26:31.583Z,11.33
2018-12-08T01:29:00.586Z,11.44
2018-12-08T01:31:29.960Z,11.10
2018-12-08T01:33:59.032Z,10.42
2018-12-08T01:36:28.106Z,10.77
2018-12-08T01:38:57.453Z,10.07
2018-12-08T01:41:26.658Z,10.19
2018-12-08T01:43:55.753Z,11.12
2018-12-08T01:46:24.855Z,10.42
2018-12-08T01:48:54.042Z,11.22
2018-12-08T01:51:23.225Z,11.07
2018-12-08T01:53:52.437Z,10.31
2018-12-08T01:56:21.623Z,10.04
2018-12-08T01:58:51.431Z,9.81
2018-12-08T02:01:20.545Z,10.65
2018-12-08T02:03:49.742Z,10.68
2018-12-08T02:06:18.959Z,10.83
2018-12-08T02:08:48.113Z,10.74
2018-12-08T02:11:24.715Z,10.45
2018-12-08T02:13:48.284Z,10.54
2018-12-08T02:16:17.355Z,10.51
2018-12-08T02:18:46.471Z,10.94
2018-12-08T02:21:15.487Z,11.74
2018-12-08T02:23:44.516Z,11.96
2018-12-08T02:26:13.738Z,12.12
2018-12-08T02:28:42.986Z,12.20
2018-12-08T02:31:12.070Z,12.21
2018-12-08T02:33:41.359Z,11.91
2018-12-08T02:36:10.515Z,11.55
2018-12-08T02:38:39.527Z,11.54
2018-12-08T02:41:08.731Z,10.69
2018-12-08T02:43:37.953Z,11.14
2018-12-08T02:46:06.959Z,11.14
2018-12-08T02:48:36.051Z,10.79
2018-12-08T02:51:05.253Z,11.35
2018-12-08T02:53:34.384Z,11.49
2018-12-08T02:56:03.625Z,11.67
2018-12-08T02:58:32.804Z,11.76
2018-12-08T03:01:01.946Z,11.78
2018-12-08T03:03:31.077Z,11.66
2018-12-08T03:06:00.207Z,11.72
2018-12-08T03:08:29.391Z,11.64
2018-12-08T03:10:58.559Z,11.77
2018-12-08T03:13:27.799Z,11.75
2018-12-08T03:15:57.025Z,11.68
2018-12-08T03:18:26.159Z,11.70
2018-12-08T03:20:55.255Z,11.48
2018-12-08T03:23:24.389Z,11.29
2018-12-08T03:25:53.611Z,11.19
2018-12-08T03:28:22.775Z,10.50
2018-12-08T03:30:52.012Z,11.27
2018-12-08T03:33:21.211Z,11.05
2018-12-08T03:35:50.379Z,10.46
2018-12-08T03:38:19.523Z,10.29
2018-12-08T03:40:48.663Z,9.63
2018-12-08T03:43:17.758Z,10.04
2018-12-08T03:45:46.792Z,10.20
2018-12-08T03:48:16.159Z,10.30
2018-12-08T03:50:45.784Z,10.47
2018-12-08T03:53:14.901Z,10.95
2018-12-08T03:55:44.993Z,11.15
2018-12-08T03:58:14.410Z,9.91
2018-12-08T04:00:43.412Z,10.38
2018-12-08T04:03:12.702Z,10.03
2018-12-08T04:05:41.741Z,11.00
2018-12-08T04:08:11.164Z,11.28
2018-12-08T04:10:40.197Z,11.35
2018-12-08T04:13:09.286Z,11.42
2018-12-08T04:15:38.356Z,11.41
2018-12-08T04:18:07.374Z,11.38
2018-12-08T04:20:36.870Z,11.40
2018-12-08T04:23:05.964Z,11.44
2018-12-08T04:25:35.070Z,11.41
2018-12-08T04:28:04.115Z,11.21
2018-12-08T04:30:33.315Z,10.58
2018-12-08T04:33:02.365Z,11.20
2018-12-08T04:35:31.550Z,11.36
2018-12-08T04:38:01.042Z,11.37
2018-12-08T04:40:30.141Z,11.42
2018-12-08T04:42:59.255Z,11.25
2018-12-08T04:45:28.851Z,11.33
2018-12-08T04:47:57.973Z,11.31
2018-12-08T04:50:27.582Z,11.26
2018-12-08T04:52:56.662Z,11.41
2018-12-08T04:55:25.914Z,11.37
2018-12-08T04:57:55.078Z,11.16
2018-12-08T05:00:24.188Z,11.33
2018-12-08T05:02:53.412Z,11.42
2018-12-08T05:05:22.649Z,11.48
2018-12-08T05:07:51.762Z,11.35
2018-12-08T05:10:20.930Z,11.40
2018-12-08T05:12:50.152Z,11.42
2018-12-08T05:15:19.138Z,11.38
2018-12-08T05:17:48.230Z,11.44
2018-12-08T05:20:17.348Z,11.26
2018-12-08T05:22:46.478Z,11.43
2018-12-08T05:25:15.535Z,11.41
2018-12-08T05:27:44.597Z,11.37
2018-12-08T05:30:13.657Z,11.40
2018-12-08T05:32:42.654Z,11.39
2018-12-08T05:35:11.700Z,11.38
2018-12-08T05:37:40.796Z,11.34
2018-12-08T05:40:10.282Z,11.40
2018-12-08T05:42:39.861Z,11.22
2018-12-08T05:45:09.421Z,11.33
2018-12-08T05:47:38.416Z,11.37
2018-12-08T05:50:08.745Z,11.38
2018-12-08T05:52:37.922Z,11.45
2018-12-08T05:55:07.111Z,10.52
2018-12-08T05:57:36.138Z,11.36
2018-12-08T06:00:06.793Z,11.04
2018-12-08T06:02:35.961Z,11.15
2018-12-08T06:05:06.005Z,11.39
2018-12-08T06:07:35.125Z,11.39
2018-12-08T06:10:05.086Z,11.39
2018-12-08T06:12:34.625Z,11.34
2018-12-08T06:15:04.047Z,11.34
2018-12-08T06:17:33.146Z,11.41
2018-12-08T06:20:02.233Z,10.81
2018-12-08T06:22:31.594Z,11.17
2018-12-08T06:25:00.698Z,10.97
2018-12-08T06:28:08.583Z,11.25
2018-12-08T06:30:37.886Z,11.25
2018-12-08T06:33:06.976Z,11.16
2018-12-08T06:35:36.599Z,11.39
2018-12-08T06:38:05.906Z,11.03
2018-12-08T06:40:34.992Z,10.37
2018-12-08T06:43:04.198Z,11.20
2018-12-08T06:45:33.380Z,10.81
2018-12-08T06:48:02.438Z,11.18
2018-12-08T06:50:31.507Z,11.19
2018-12-08T06:53:01.064Z,11.38
2018-12-08T06:55:30.138Z,11.32
2018-12-08T06:57:59.264Z,11.23
2018-12-08T07:00:28.172Z,11.11
2018-12-08T07:02:57.343Z,11.13
2018-12-08T07:05:26.361Z,11.40
2018-12-08T07:07:55.431Z,11.14
2018-12-08T07:10:24.543Z,11.09
2018-12-08T07:12:53.662Z,10.81
2018-12-08T07:15:23.918Z,11.08
2018-12-08T07:17:53.264Z,11.01
2018-12-08T07:20:22.450Z,11.05
2018-12-08T07:22:51.648Z,10.94
2018-12-08T07:25:20.736Z,10.81
2018-12-08T07:27:49.768Z,11.12
2018-12-08T07:30:18.762Z,11.06
2018-12-08T07:32:48.247Z,11.13
2018-12-08T07:35:17.560Z,11.13
2018-12-08T07:37:47.376Z,10.65
2018-12-08T07:40:16.573Z,10.38
2018-12-08T07:42:46.053Z,10.77
2018-12-08T07:45:15.295Z,10.84
2018-12-08T07:47:44.789Z,10.60
2018-12-08T07:50:14.379Z,9.94
2018-12-08T07:52:43.470Z,9.70
2018-12-08T07:55:12.985Z,10.38
2018-12-08T07:57:42.059Z,10.10
2018-12-08T08:00:12.625Z,10.40
2018-12-08T08:02:41.859Z,10.09
2018-12-08T08:05:10.856Z,10.22
2018-12-08T08:07:40.087Z,9.92
2018-12-08T08:10:10.714Z,10.61
2018-12-08T08:12:39.841Z,10.73
2018-12-08T08:15:10.261Z,10.05
2018-12-08T08:17:39.675Z,10.16
2018-12-08T08:20:11.414Z,10.95
2018-12-08T08:22:40.473Z,11.00
2018-12-08T08:25:11.302Z,10.43
2018-12-08T08:27:40.425Z,10.14
2018-12-08T08:30:11.515Z,10.10
2018-12-08T08:32:40.644Z,10.00
2018-12-08T08:35:09.973Z,9.68
2018-12-08T08:37:39.173Z,9.60
2018-12-08T08:40:10.867Z,10.29
2018-12-08T08:42:40.159Z,9.81
2018-12-08T08:45:09.549Z,9.73
2018-12-08T08:47:38.801Z,9.94
2018-12-08T08:50:10.687Z,10.38
2018-12-08T08:52:40.324Z,10.86
2018-12-08T08:55:09.183Z,10.91
2018-12-08T08:57:38.080Z,10.74
2018-12-08T09:00:09.203Z,10.60
2018-12-08T09:02:38.077Z,10.41
2018-12-08T09:05:07.649Z,10.65
2018-12-08T09:07:36.521Z,10.46
2018-12-08T09:10:09.359Z,10.82
2018-12-08T09:12:38.664Z,10.36
2018-12-08T09:15:08.627Z,10.18
2018-12-08T09:17:37.503Z,10.32
2018-12-08T09:20:09.354Z,10.29
2018-12-08T09:22:38.356Z,10.86
2018-12-08T09:25:08.896Z,11.15
2018-12-08T09:27:37.774Z,11.06
2018-12-08T09:30:09.601Z,11.39
2018-12-08T09:32:38.455Z,11.57
2018-12-08T09:35:07.724Z,11.89
2018-12-08T09:37:36.608Z,12.01
2018-12-08T09:40:06.727Z,12.03
2018-12-08T09:42:35.707Z,12.44
2018-12-08T09:45:05.103Z,12.64
2018-12-08T09:47:33.953Z,12.70
2018-12-08T09:50:03.256Z,12.65
2018-12-08T09:52:32.116Z,12.74
2018-12-08T09:55:01.001Z,12.78
2018-12-08T09:57:29.885Z,12.85
2018-12-08T09:59:58.778Z,12.93
2018-12-08T10:02:27.685Z,12.71
2018-12-08T10:04:56.560Z,12.55
2018-12-08T10:07:25.395Z,12.32
2018-12-08T10:09:54.241Z,12.64
2018-12-08T10:12:23.131Z,12.52
2018-12-08T10:14:51.992Z,12.60
2018-12-08T10:17:20.850Z,12.76
2018-12-08T10:19:49.922Z,13.14
2018-12-08T10:22:18.804Z,13.37
2018-12-08T10:24:47.658Z,13.19
2018-12-08T10:27:16.496Z,13.53
2018-12-08T10:29:45.338Z,13.51
2018-12-08T10:32:14.637Z,13.71
2018-12-08T10:34:43.477Z,13.46
2018-12-08T10:37:12.335Z,13.22
2018-12-08T10:39:41.651Z,12.98
2018-12-08T10:42:10.537Z,12.69
2018-12-08T10:44:39.460Z,12.17
2018-12-08T10:47:08.631Z,12.28
2018-12-08T10:49:37.524Z,12.00
2018-12-08T10:52:06.379Z,11.98
2018-12-08T10:54:35.215Z,12.06
2018-12-08T10:57:04.507Z,11.86
2018-12-08T10:59:33.443Z,11.87
2018-12-08T11:02:02.310Z,11.78
2018-12-08T11:04:31.153Z,11.77
2018-12-08T11:07:00.048Z,11.75
2018-12-08T11:09:28.928Z,11.58
2018-12-08T11:11:57.797Z,11.62
2018-12-08T11:14:26.695Z,11.59
2018-12-08T11:16:55.543Z,11.65
2018-12-08T11:19:24.839Z,11.96
2018-12-08T11:21:53.941Z,12.15
2018-12-08T11:24:22.798Z,12.79
2018-12-08T11:26:51.692Z,12.61
2018-12-08T11:29:20.574Z,12.50
2018-12-08T11:31:49.796Z,12.35
2018-12-08T11:34:18.695Z,12.14
2018-12-08T11:36:49.620Z,11.77
2018-12-08T11:39:18.619Z,11.93
2018-12-08T11:41:47.926Z,12.00
2018-12-08T11:44:17.335Z,11.33
2018-12-08T11:46:46.726Z,11.51
2018-12-08T11:49:15.623Z,11.59
2018-12-08T11:51:44.895Z,11.64
2018-12-08T11:54:13.775Z,11.45
2018-12-08T11:56:42.614Z,11.66
2018-12-08T11:59:11.494Z,11.82
2018-12-08T12:01:40.354Z,11.71
2018-12-08T12:04:09.241Z,11.63
2018-12-08T12:06:38.129Z,11.42
2018-12-08T12:09:08.296Z,11.40
2018-12-08T12:11:37.228Z,11.32
2018-12-08T12:14:06.104Z,11.23
2018-12-08T12:16:35.057Z,11.37
2018-12-08T12:19:04.315Z,11.27
2018-12-08T12:21:33.161Z,11.17
2018-12-08T12:24:02.062Z,11.16
2018-12-08T12:26:30.936Z,11.20
2018-12-08T12:28:59.812Z,11.25
2018-12-08T12:31:28.688Z,11.10
2018-12-08T12:33:57.568Z,10.88
2018-12-08T12:36:26.418Z,10.91
2018-12-08T12:38:55.282Z,11.17
2018-12-08T12:41:24.194Z,10.84
2018-12-08T12:43:53.047Z,11.03
2018-12-08T12:46:22.605Z,11.70
2018-12-08T12:48:51.744Z,12.16
2018-12-08T12:51:20.675Z,12.30
2018-12-08T12:53:49.550Z,12.48
2018-12-08T12:56:18.481Z,12.42
2018-12-08T12:58:47.607Z,12.43
2018-12-08T13:01:16.535Z,12.17
2018-12-08T13:03:45.440Z,11.71
2018-12-08T13:06:14.628Z,11.47
2018-12-08T13:08:43.802Z,10.97
2018-12-08T13:11:12.767Z,11.01
2018-12-08T13:13:41.679Z,10.77
2018-12-08T13:16:11.416Z,10.99
2018-12-08T13:18:40.255Z,10.52
2018-12-08T13:21:09.123Z,10.96
2018-12-08T13:23:37.978Z,10.66
2018-12-08T13:26:06.892Z,10.77
2018-12-08T13:28:35.854Z,11.15
2018-12-08T13:31:04.756Z,10.82
2018-12-08T13:33:33.614Z,11.20
2018-12-08T13:36:03.154Z,11.22
2018-12-08T13:38:32.454Z,10.64
2018-12-08T13:41:01.557Z,10.53
2018-12-08T13:43:30.674Z,10.89
2018-12-08T13:45:59.539Z,10.65
2018-12-08T13:48:29.783Z,10.64
2018-12-08T13:50:59.147Z,10.29
2018-12-08T13:53:28.016Z,10.15
2018-12-08T13:55:56.858Z,9.65
2018-12-08T13:58:26.833Z,9.46
2018-12-08T14:00:55.877Z,9.83
2018-12-08T14:03:24.749Z,9.94
2018-12-08T14:05:54.050Z,10.07
2018-12-08T14:08:23.293Z,10.20
2018-12-08T14:10:52.250Z,10.44
2018-12-08T14:13:21.136Z,10.34
2018-12-08T14:15:50.027Z,10.78
2018-12-08T14:18:19.143Z,10.87
2018-12-08T14:20:48.426Z,10.52
2018-12-08T14:23:17.358Z,10.98
2018-12-08T14:25:46.207Z,10.84
2018-12-08T14:28:15.715Z,11.16
2018-12-08T14:30:44.596Z,10.85
2018-12-08T14:33:15.309Z,10.53
2018-12-08T14:35:44.503Z,10.73
2018-12-08T14:38:13.849Z,10.35
2018-12-08T14:40:42.740Z,10.73
2018-12-08T14:43:11.624Z,9.81
2018-12-08T14:45:40.519Z,10.43
2018-12-08T14:48:09.424Z,10.60
2018-12-08T14:50:38.285Z,9.73
2018-12-08T14:53:07.182Z,10.82
2018-12-08T14:55:36.074Z,10.47
2018-12-08T14:58:05.171Z,10.31
2018-12-08T15:00:34.115Z,9.80
2018-12-08T15:03:03.376Z,10.25
2018-12-08T15:05:32.267Z,9.58
2018-12-08T15:08:01.148Z,10.23
2018-12-08T15:10:30.066Z,10.34
2018-12-08T15:12:58.939Z,9.61
2018-12-08T15:15:27.836Z,10.04
2018-12-08T15:17:57.114Z,10.64
2018-12-08T15:20:26.118Z,10.67
2018-12-08T15:22:55.001Z,10.73
2018-12-08T15:25:23.998Z,10.65
2018-12-08T15:27:52.846Z,10.93
2018-12-08T15:30:21.772Z,10.18
2018-12-08T15:32:50.679Z,10.32
2018-12-08T15:35:20.018Z,10.85
2018-12-08T15:37:49.533Z,10.69
2018-12-08T15:40:18.387Z,10.39
2018-12-08T15:42:47.502Z,10.40
2018-12-08T15:45:16.906Z,10.94
2018-12-08T15:47:45.776Z,10.63
2018-12-08T15:50:15.355Z,9.63
2018-12-08T15:52:44.636Z,10.33
2018-12-08T15:55:13.770Z,10.10
2018-12-08T15:57:42.663Z,10.37
2018-12-08T16:00:12.601Z,10.29
2018-12-08T16:02:41.887Z,9.37
2018-12-08T16:05:11.185Z,9.69
2018-12-08T16:07:40.525Z,10.12
2018-12-08T16:10:09.849Z,9.87
2018-12-08T16:12:38.790Z,9.75
2018-12-08T16:15:09.392Z,10.36
2018-12-08T16:17:38.262Z,9.86
2018-12-08T16:20:10.405Z,10.13
2018-12-08T16:22:40.042Z,9.75
2018-12-08T16:25:09.445Z,10.12
2018-12-08T16:27:38.353Z,10.16
2018-12-08T16:30:08.899Z,9.77
2018-12-08T16:32:37.801Z,9.71
2018-12-08T16:35:07.349Z,9.85
2018-12-08T16:37:36.439Z,9.74
2018-12-08T16:40:06.383Z,10.23
2018-12-08T16:42:35.399Z,10.57
2018-12-08T16:45:05.405Z,9.79
2018-12-08T16:47:34.678Z,10.48
2018-12-08T16:50:04.091Z,9.96
2018-12-08T16:52:32.959Z,9.80
2018-12-08T16:55:01.846Z,10.48
2018-12-08T16:57:31.141Z,10.07
2018-12-08T17:00:00.064Z,10.52
2018-12-08T17:02:29.343Z,10.41
2018-12-08T17:04:58.224Z,9.84
2018-12-08T17:07:27.075Z,10.23
2018-12-08T17:09:55.964Z,9.51
2018-12-08T17:12:24.841Z,9.21
2018-12-08T17:14:53.695Z,10.07
2018-12-08T17:17:22.704Z,10.02
2018-12-08T17:19:51.579Z,9.95
2018-12-08T17:22:20.922Z,10.07
2018-12-08T17:24:50.251Z,9.96
2018-12-08T17:27:19.109Z,10.34
2018-12-08T17:29:47.971Z,10.00
2018-12-08T17:32:16.892Z,9.71
2018-12-08T17:34:45.722Z,9.78
2018-12-08T17:37:14.674Z,10.06
2018-12-08T17:39:43.569Z,9.73
2018-12-08T17:42:12.517Z,10.25
2018-12-08T17:44:41.428Z,10.41
2018-12-08T17:47:10.721Z,10.36
2018-12-08T17:49:39.552Z,10.46
2018-12-08T17:52:08.418Z,10.16
2018-12-08T17:54:37.258Z,10.56
2018-12-08T17:57:06.613Z,10.74
2018-12-08T17:59:35.728Z,10.76
2018-12-08T18:02:05.677Z,10.66
2018-12-08T18:04:34.836Z,10.75
2018-12-08T18:07:03.706Z,10.20
2018-12-08T18:09:32.531Z,9.96
2018-12-08T18:12:01.839Z,10.00
2018-12-08T18:14:31.118Z,9.87
2018-12-08T18:17:00.012Z,9.98
2018-12-08T18:19:28.894Z,10.24
2018-12-08T18:21:57.838Z,9.85
2018-12-08T18:24:26.914Z,10.62
2018-12-08T18:26:56.192Z,10.18
2018-12-08T18:29:25.055Z,10.44
2018-12-08T18:31:53.919Z,10.72
2018-12-08T18:34:22.759Z,10.30
2018-12-08T18:36:51.876Z,10.61
2018-12-08T18:39:20.760Z,10.82
2018-12-08T18:41:50.050Z,10.47
2018-12-08T18:44:18.902Z,10.40
2018-12-08T18:46:47.728Z,10.24
2018-12-08T18:49:16.619Z,10.35
2018-12-08T18:51:45.826Z,10.02
2018-12-08T18:54:14.768Z,10.65
2018-12-08T18:56:43.677Z,10.54
2018-12-08T18:59:12.551Z,10.97
2018-12-08T19:01:41.952Z,10.83
2018-12-08T19:04:10.781Z,10.84
2018-12-08T19:06:39.650Z,10.37
2018-12-08T19:09:09.283Z,10.28
2018-12-08T19:11:38.231Z,10.66
2018-12-08T19:14:07.479Z,10.89
2018-12-08T19:16:36.364Z,10.69
2018-12-08T19:19:05.235Z,10.70
2018-12-08T19:21:34.124Z,10.39
2018-12-08T19:24:03.447Z,10.54
2018-12-08T19:26:32.315Z,9.90
2018-12-08T19:29:01.566Z,10.18
2018-12-08T19:31:30.839Z,10.58
2018-12-08T19:33:59.668Z,9.73
2018-12-08T19:36:28.525Z,10.29
2018-12-08T19:38:57.791Z,10.04
2018-12-08T19:41:26.676Z,9.87
2018-12-08T19:43:55.527Z,9.93
2018-12-08T19:46:24.456Z,9.74
2018-12-08T19:48:53.324Z,9.90
2018-12-08T19:51:22.183Z,9.87
2018-12-08T19:53:51.066Z,10.05
2018-12-08T19:56:20.059Z,9.77
2018-12-08T19:58:48.962Z,10.27
2018-12-08T20:01:18.011Z,10.24
2018-12-08T20:03:46.894Z,10.54
2018-12-08T20:06:15.827Z,10.26
2018-12-08T20:08:45.426Z,10.50
2018-12-08T20:11:14.333Z,10.55
2018-12-08T20:13:43.420Z,10.78
2018-12-08T20:16:12.761Z,10.10
2018-12-08T20:18:41.612Z,9.97
2018-12-08T20:21:10.470Z,9.76
2018-12-08T20:23:39.351Z,10.03
2018-12-08T20:26:08.722Z,10.35
2018-12-08T20:28:37.580Z,10.10
2018-12-08T20:31:06.421Z,10.59
2018-12-08T20:33:35.265Z,10.17
2018-12-08T20:36:04.115Z,10.24
2018-12-08T20:38:32.947Z,9.85
2018-12-08T20:41:02.197Z,10.14
2018-12-08T20:43:31.319Z,10.39
2018-12-08T20:46:00.196Z,10.18
2018-12-08T20:48:29.083Z,10.03
2018-12-08T20:50:57.943Z,10.32
2018-12-08T20:53:26.797Z,10.58
2018-12-08T20:55:55.688Z,10.35
2018-12-08T20:58:24.537Z,9.97
2018-12-08T21:00:53.783Z,10.35
2018-12-08T21:03:22.642Z,10.23
2018-12-08T21:05:51.500Z,10.17
2018-12-08T21:08:20.360Z,10.31
2018-12-08T21:10:49.250Z,10.14
2018-12-08T21:13:18.140Z,10.06
2018-12-08T21:15:47.416Z,9.87
2018-12-08T21:18:16.305Z,10.23
2018-12-08T21:20:45.127Z,10.75
2018-12-08T21:23:14.423Z,10.40
2018-12-08T21:25:43.279Z,10.72
2018-12-08T21:28:12.151Z,10.97
2018-12-08T21:30:40.991Z,11.02
2018-12-08T21:33:10.047Z,10.36
2018-12-08T21:35:38.874Z,10.09
2018-12-08T21:38:07.734Z,10.64
2018-12-08T21:40:38.243Z,10.78
2018-12-08T21:43:07.110Z,10.87
2018-12-08T21:45:36.287Z,10.92
2018-12-08T21:48:05.252Z,11.04
2018-12-08T21:50:34.551Z,10.53
2018-12-08T21:53:03.469Z,10.85
2018-12-08T21:55:32.974Z,10.85
2018-12-08T21:58:01.831Z,10.28
2018-12-08T22:00:30.803Z,10.79
2018-12-08T22:02:59.671Z,10.41
2018-12-08T22:05:28.594Z,10.27
2018-12-08T22:07:57.528Z,10.72
2018-12-08T22:10:26.414Z,10.78
2018-12-08T22:12:55.347Z,10.29
2018-12-08T22:15:24.210Z,10.83
2018-12-08T22:17:53.147Z,10.71
2018-12-08T22:20:22.271Z,10.91
2018-12-08T22:22:51.190Z,10.88
2018-12-08T22:25:20.068Z,10.71
2018-12-08T22:27:48.971Z,10.95
2018-12-08T22:30:18.033Z,10.88
2018-12-08T22:32:46.893Z,10.50
2018-12-08T22:35:15.750Z,10.82
2018-12-08T22:37:44.653Z,10.64
2018-12-08T22:40:13.942Z,11.11
2018-12-08T22:42:42.942Z,11.06
2018-12-08T22:45:12.123Z,11.19
2018-12-08T22:47:41.135Z,10.81
2018-12-08T22:50:10.364Z,11.10
2018-12-08T22:52:39.211Z,10.91
2018-12-08T22:55:08.471Z,10.35
2018-12-08T22:57:39.402Z,10.70
2018-12-08T23:00:18.715Z,10.79
2018-12-08T23:02:47.622Z,10.86
2018-12-08T23:05:16.483Z,10.80
2018-12-08T23:07:45.352Z,10.32
2018-12-08T23:10:14.647Z,10.64
2018-12-08T23:12:43.486Z,10.83
2018-12-08T23:15:12.807Z,10.78
2018-12-08T23:17:41.707Z,11.03
2018-12-08T23:20:11.137Z,11.02
2018-12-08T23:22:40.011Z,10.38
2018-12-08T23:25:09.278Z,10.85
2018-12-08T23:27:38.171Z,10.75
2018-12-08T23:30:07.883Z,10.67
2018-12-08T23:32:37.145Z,10.26
2018-12-08T23:35:06.442Z,10.48
2018-12-08T23:37:35.331Z,10.66
2018-12-08T23:40:05.130Z,10.97
2018-12-08T23:42:33.983Z,10.36
2018-12-08T23:45:03.069Z,10.67
2018-12-08T23:47:31.930Z,10.73
2018-12-08T23:50:00.798Z,11.04
2018-12-08T23:52:30.098Z,10.90
2018-12-08T23:54:58.944Z,10.28
2018-12-08T23:57:27.786Z,10.56
2018-12-08T23:59:56.666Z,10.51
